WJA780 CYYZ-CYYT
Flight info
| Callsign | WJA780 |
|---|---|
| Flight time | 2h 50m |
| Altitude | 37000 |
| Route | VERDO7 LORKA Q907 MIVAD AVALN5 |
| Aircraft | B38M/M-SDE1FGHILORVWXY/HB1 |
Departure
| Time | 2026-05-04 16:27 |
|---|---|
| Airport | Toronto Pearson International Airport (CYYZ) |
Arrival
| Time | 2026-05-04 19:18 |
|---|---|
| Airport | St. John's International Airport (CYYT) |
| Time | Latitude | Longitude | Altitude | Speed | Heading |
|---|---|---|---|---|---|
| 2026-05-04 16:15 | 43.68538 | -79.62220 | 582 ft | 0 kts | 347° |
| 2026-05-04 16:17 | 43.68508 | -79.62211 | 567 ft | 3 kts | 350° |
| 2026-05-04 16:18 | 43.68452 | -79.62213 | 568 ft | 2 kts | 43° |
| 2026-05-04 16:18 | 43.68449 | -79.62218 | 566 ft | 1 kts | 47° |
| 2026-05-04 16:20 | 43.68450 | -79.62169 | 567 ft | 3 kts | 167° |
| 2026-05-04 16:21 | 43.68276 | -79.62394 | 564 ft | 15 kts | 238° |
| 2026-05-04 16:22 | 43.68347 | -79.62575 | 572 ft | 13 kts | 317° |
| 2026-05-04 16:22 | 43.68573 | -79.62870 | 564 ft | 17 kts | 316° |
| 2026-05-04 16:23 | 43.68856 | -79.63241 | 564 ft | 20 kts | 316° |
| 2026-05-04 16:24 | 43.69169 | -79.63459 | 568 ft | 11 kts | 42° |
| 2026-05-04 16:25 | 43.69294 | -79.63419 | 570 ft | 0 kts | 3° |
| 2026-05-04 16:26 | 43.69396 | -79.63498 | 571 ft | 14 kts | 271° |
| 2026-05-04 16:26 | 43.68657 | -79.64607 | 573 ft | 130 kts | 226° |
| 2026-05-04 16:27 | 43.67148 | -79.66831 | 1359 ft | 167 kts | 227° |
| 2026-05-04 16:28 | 43.64892 | -79.70989 | 3003 ft | 210 kts | 236° |
| 2026-05-04 16:28 | 43.61027 | -79.73403 | 5431 ft | 239 kts | 171° |
| 2026-05-04 16:29 | 43.55524 | -79.66396 | 8025 ft | 295 kts | 138° |
| 2026-05-04 16:30 | 43.51348 | -79.59830 | 10258 ft | 318 kts | 117° |
| 2026-05-04 16:31 | 43.51156 | -79.53575 | 11065 ft | 350 kts | 71° |
| 2026-05-04 16:31 | 43.53195 | -79.43450 | 12881 ft | 373 kts | 70° |
| 2026-05-04 16:32 | 43.56628 | -79.33707 | 14867 ft | 382 kts | 60° |
| 2026-05-04 16:33 | 43.59009 | -79.27155 | 16181 ft | 388 kts | 60° |
| 2026-05-04 16:33 | 43.61446 | -79.20428 | 17431 ft | 395 kts | 60° |
| 2026-05-04 16:34 | 43.63918 | -79.13590 | 18576 ft | 401 kts | 60° |
| 2026-05-04 16:34 | 43.65168 | -79.10126 | 19110 ft | 404 kts | 60° |
| 2026-05-04 16:35 | 43.68949 | -78.99619 | 20753 ft | 410 kts | 60° |
| 2026-05-04 16:35 | 43.72791 | -78.88900 | 22225 ft | 419 kts | 59° |
| 2026-05-04 16:36 | 43.74088 | -78.85272 | 22710 ft | 422 kts | 59° |
| 2026-05-04 16:36 | 43.76702 | -78.77945 | 23597 ft | 428 kts | 60° |
| 2026-05-04 16:37 | 43.78854 | -78.71745 | 24257 ft | 432 kts | 60° |
| 2026-05-04 16:37 | 43.80156 | -78.67984 | 24647 ft | 435 kts | 60° |
| 2026-05-04 16:37 | 43.82777 | -78.60410 | 25433 ft | 439 kts | 59° |
| 2026-05-04 16:38 | 43.85423 | -78.52741 | 26146 ft | 444 kts | 59° |
| 2026-05-04 16:39 | 43.89443 | -78.41050 | 27152 ft | 452 kts | 59° |
| 2026-05-04 16:39 | 43.92152 | -78.33141 | 27814 ft | 456 kts | 59° |
| 2026-05-04 16:40 | 43.94883 | -78.25147 | 28452 ft | 461 kts | 59° |
| 2026-05-04 16:40 | 43.97638 | -78.17058 | 29074 ft | 466 kts | 59° |
| 2026-05-04 16:41 | 44.00412 | -78.08889 | 29694 ft | 470 kts | 59° |
| 2026-05-04 16:41 | 44.04608 | -77.96484 | 30490 ft | 475 kts | 59° |
| 2026-05-04 16:42 | 44.08820 | -77.83973 | 31309 ft | 478 kts | 59° |
| 2026-05-04 16:43 | 44.11638 | -77.75570 | 31854 ft | 480 kts | 59° |
| 2026-05-04 16:43 | 44.14444 | -77.67178 | 32571 ft | 477 kts | 59° |
| 2026-05-04 16:43 | 44.15842 | -77.62987 | 32924 ft | 476 kts | 59° |
| 2026-05-04 16:44 | 44.21686 | -77.46710 | 34167 ft | 465 kts | 51° |
| 2026-05-04 16:45 | 44.25126 | -77.39044 | 34545 ft | 467 kts | 51° |
| 2026-05-04 16:46 | 44.30310 | -77.27506 | 35161 ft | 469 kts | 52° |
| 2026-05-04 16:46 | 44.33775 | -77.19766 | 35561 ft | 470 kts | 52° |
| 2026-05-04 16:47 | 44.37246 | -77.11997 | 35921 ft | 472 kts | 53° |
| 2026-05-04 16:47 | 44.40718 | -77.04202 | 36272 ft | 473 kts | 53° |
| 2026-05-04 16:48 | 44.45934 | -76.92450 | 36778 ft | 474 kts | 53° |
| 2026-05-04 16:48 | 44.47675 | -76.88519 | 36790 ft | 476 kts | 53° |
| 2026-05-04 16:49 | 44.54619 | -76.72779 | 36782 ft | 475 kts | 54° |
| 2026-05-04 16:50 | 44.61550 | -76.56984 | 36778 ft | 475 kts | 54° |
| 2026-05-04 16:51 | 44.66732 | -76.45115 | 36774 ft | 475 kts | 54° |
| 2026-05-04 16:52 | 44.73628 | -76.29249 | 36773 ft | 475 kts | 54° |
| 2026-05-04 16:53 | 44.78137 | -76.16865 | 36793 ft | 482 kts | 66° |
| 2026-05-04 16:54 | 44.82806 | -75.99004 | 36771 ft | 485 kts | 66° |
| 2026-05-04 16:55 | 44.89714 | -75.72179 | 36761 ft | 486 kts | 66° |
| 2026-05-04 16:56 | 44.95417 | -75.49796 | 36759 ft | 486 kts | 66° |
| 2026-05-04 16:57 | 44.98829 | -75.36304 | 36757 ft | 486 kts | 66° |
| 2026-05-04 16:58 | 45.03351 | -75.18296 | 36764 ft | 486 kts | 67° |
| 2026-05-04 17:00 | 45.10086 | -74.91214 | 36749 ft | 487 kts | 67° |
| 2026-05-04 17:01 | 45.15878 | -74.68724 | 36749 ft | 486 kts | 65° |
| 2026-05-04 17:02 | 45.20639 | -74.50888 | 36742 ft | 485 kts | 65° |
| 2026-05-04 17:03 | 45.24202 | -74.37450 | 36715 ft | 486 kts | 65° |
| 2026-05-04 17:03 | 45.27769 | -74.23917 | 36760 ft | 489 kts | 66° |
| 2026-05-04 17:04 | 45.32504 | -74.05834 | 36756 ft | 488 kts | 66° |
| 2026-05-04 17:05 | 45.37211 | -73.87718 | 36765 ft | 489 kts | 66° |
| 2026-05-04 17:06 | 45.40722 | -73.74112 | 36788 ft | 489 kts | 66° |
| 2026-05-04 17:07 | 45.43822 | -73.62032 | 36768 ft | 488 kts | 66° |
| 2026-05-04 17:07 | 45.46536 | -73.51405 | 36758 ft | 488 kts | 66° |
| 2026-05-04 17:08 | 45.50004 | -73.37757 | 36759 ft | 489 kts | 66° |
| 2026-05-04 17:09 | 45.52308 | -73.28643 | 36756 ft | 489 kts | 67° |
| 2026-05-04 17:09 | 45.54604 | -73.19521 | 36763 ft | 489 kts | 67° |
| 2026-05-04 17:10 | 45.60314 | -72.96686 | 36789 ft | 489 kts | 67° |
| 2026-05-04 17:11 | 45.62587 | -72.87532 | 36786 ft | 489 kts | 67° |
| 2026-05-04 17:12 | 45.65969 | -72.73840 | 36804 ft | 489 kts | 68° |
| 2026-05-04 17:13 | 45.71590 | -72.50906 | 36778 ft | 489 kts | 68° |
| 2026-05-04 17:14 | 45.76057 | -72.32507 | 36780 ft | 490 kts | 68° |
| 2026-05-04 17:15 | 45.79391 | -72.18677 | 36779 ft | 489 kts | 68° |
| 2026-05-04 17:16 | 45.83807 | -72.00227 | 36776 ft | 489 kts | 69° |
| 2026-05-04 17:17 | 45.88200 | -71.81716 | 36776 ft | 490 kts | 69° |
| 2026-05-04 17:18 | 45.92565 | -71.63169 | 36771 ft | 490 kts | 69° |
| 2026-05-04 17:19 | 45.96902 | -71.44586 | 36776 ft | 491 kts | 70° |
| 2026-05-04 17:20 | 46.01217 | -71.25936 | 36766 ft | 491 kts | 70° |
| 2026-05-04 17:20 | 46.04418 | -71.11997 | 36767 ft | 491 kts | 70° |
| 2026-05-04 17:21 | 46.08678 | -70.93302 | 36769 ft | 492 kts | 70° |
| 2026-05-04 17:22 | 46.10459 | -70.85443 | 36759 ft | 492 kts | 71° |
| 2026-05-04 17:23 | 46.14672 | -70.66730 | 36781 ft | 492 kts | 71° |
| 2026-05-04 17:24 | 46.17822 | -70.52650 | 36761 ft | 492 kts | 71° |
| 2026-05-04 17:25 | 46.22006 | -70.33808 | 36758 ft | 493 kts | 71° |
| 2026-05-04 17:26 | 46.26079 | -70.14889 | 36756 ft | 493 kts | 72° |
| 2026-05-04 17:27 | 46.31100 | -69.91229 | 36762 ft | 494 kts | 72° |
| 2026-05-04 17:28 | 46.35092 | -69.72221 | 36756 ft | 493 kts | 72° |
| 2026-05-04 17:29 | 46.41019 | -69.43673 | 36755 ft | 494 kts | 73° |
| 2026-05-04 17:31 | 46.45902 | -69.19844 | 36751 ft | 495 kts | 73° |
| 2026-05-04 17:32 | 46.50745 | -68.95923 | 36734 ft | 493 kts | 73° |
| 2026-05-04 17:33 | 46.54575 | -68.76799 | 36729 ft | 493 kts | 73° |
| 2026-05-04 17:34 | 46.58375 | -68.57642 | 36712 ft | 493 kts | 74° |
| 2026-05-04 17:35 | 46.63086 | -68.33622 | 36701 ft | 494 kts | 74° |
| 2026-05-04 17:36 | 46.64957 | -68.23998 | 36698 ft | 494 kts | 74° |
| 2026-05-04 17:36 | 46.66821 | -68.14363 | 36691 ft | 494 kts | 75° |
| 2026-05-04 17:37 | 46.68676 | -68.04724 | 36692 ft | 494 kts | 75° |
| 2026-05-04 17:37 | 46.70527 | -67.95071 | 36680 ft | 495 kts | 75° |
| 2026-05-04 17:38 | 46.72374 | -67.85394 | 36694 ft | 497 kts | 75° |
| 2026-05-04 17:38 | 46.74210 | -67.75691 | 36691 ft | 496 kts | 75° |
| 2026-05-04 17:39 | 46.76951 | -67.61138 | 36677 ft | 496 kts | 75° |
| 2026-05-04 17:39 | 46.78769 | -67.51428 | 36686 ft | 496 kts | 75° |
| 2026-05-04 17:40 | 46.80579 | -67.41707 | 36681 ft | 497 kts | 75° |
| 2026-05-04 17:40 | 46.82382 | -67.31977 | 36675 ft | 496 kts | 75° |
| 2026-05-04 17:41 | 46.84173 | -67.22257 | 36676 ft | 496 kts | 75° |
| 2026-05-04 17:41 | 46.85946 | -67.12589 | 36668 ft | 496 kts | 75° |
| 2026-05-04 17:42 | 46.87562 | -67.02804 | 36662 ft | 495 kts | 81° |
| 2026-05-04 17:42 | 46.88765 | -66.92893 | 36644 ft | 496 kts | 80° |
| 2026-05-04 17:43 | 46.90021 | -66.82991 | 36656 ft | 495 kts | 80° |
| 2026-05-04 17:43 | 46.91273 | -66.73095 | 36662 ft | 494 kts | 80° |
| 2026-05-04 17:44 | 46.92516 | -66.63211 | 36645 ft | 494 kts | 80° |
| 2026-05-04 17:44 | 46.93750 | -66.53316 | 36646 ft | 494 kts | 80° |
| 2026-05-04 17:45 | 46.94975 | -66.43424 | 36635 ft | 494 kts | 80° |
| 2026-05-04 17:45 | 46.96190 | -66.33544 | 36628 ft | 493 kts | 81° |
| 2026-05-04 17:46 | 46.97396 | -66.23658 | 36630 ft | 493 kts | 81° |
| 2026-05-04 17:46 | 46.98594 | -66.13770 | 36638 ft | 493 kts | 81° |
| 2026-05-04 17:47 | 46.99780 | -66.03895 | 36622 ft | 491 kts | 81° |
| 2026-05-04 17:47 | 47.00957 | -65.94031 | 36620 ft | 492 kts | 81° |
| 2026-05-04 17:48 | 47.02126 | -65.84155 | 36618 ft | 492 kts | 81° |
| 2026-05-04 17:48 | 47.03286 | -65.74281 | 36621 ft | 492 kts | 81° |
| 2026-05-04 17:49 | 47.04438 | -65.64393 | 36617 ft | 492 kts | 81° |
| 2026-05-04 17:49 | 47.05582 | -65.54504 | 36616 ft | 492 kts | 81° |
| 2026-05-04 17:50 | 47.06716 | -65.44616 | 36617 ft | 491 kts | 81° |
| 2026-05-04 17:50 | 47.07840 | -65.34739 | 36606 ft | 491 kts | 81° |
| 2026-05-04 17:51 | 47.08957 | -65.24848 | 36602 ft | 491 kts | 81° |
| 2026-05-04 17:51 | 47.10066 | -65.14948 | 36598 ft | 491 kts | 81° |
| 2026-05-04 17:52 | 47.11165 | -65.05050 | 36592 ft | 491 kts | 81° |
| 2026-05-04 17:52 | 47.12249 | -64.95211 | 36589 ft | 491 kts | 82° |
| 2026-05-04 17:53 | 47.13332 | -64.85303 | 36592 ft | 492 kts | 82° |
| 2026-05-04 17:53 | 47.14407 | -64.75386 | 36584 ft | 491 kts | 82° |
| 2026-05-04 17:54 | 47.15471 | -64.65483 | 36585 ft | 491 kts | 82° |
| 2026-05-04 17:54 | 47.16526 | -64.55583 | 36580 ft | 491 kts | 82° |
| 2026-05-04 17:55 | 47.17574 | -64.45673 | 36578 ft | 491 kts | 82° |
| 2026-05-04 17:55 | 47.18612 | -64.35757 | 36577 ft | 491 kts | 82° |
| 2026-05-04 17:56 | 47.19646 | -64.25806 | 36567 ft | 492 kts | 82° |
| 2026-05-04 17:56 | 47.20670 | -64.15861 | 36580 ft | 492 kts | 82° |
| 2026-05-04 17:57 | 47.21682 | -64.05937 | 36565 ft | 490 kts | 82° |
| 2026-05-04 17:57 | 47.22685 | -63.96024 | 36548 ft | 490 kts | 82° |
| 2026-05-04 17:58 | 47.23680 | -63.86099 | 36547 ft | 490 kts | 82° |
| 2026-05-04 17:58 | 47.24665 | -63.76176 | 36543 ft | 490 kts | 82° |
| 2026-05-04 17:59 | 47.25643 | -63.66244 | 36543 ft | 490 kts | 83° |
| 2026-05-04 18:00 | 47.27093 | -63.51350 | 36547 ft | 490 kts | 83° |
| 2026-05-04 18:00 | 47.28042 | -63.41482 | 36540 ft | 489 kts | 83° |
| 2026-05-04 18:01 | 47.28987 | -63.31562 | 36550 ft | 491 kts | 83° |
| 2026-05-04 18:01 | 47.29928 | -63.21600 | 36534 ft | 491 kts | 83° |
| 2026-05-04 18:02 | 47.31321 | -63.06661 | 36540 ft | 491 kts | 83° |
| 2026-05-04 18:02 | 47.32240 | -62.96692 | 36539 ft | 491 kts | 83° |
| 2026-05-04 18:03 | 47.33149 | -62.86731 | 36527 ft | 491 kts | 83° |
| 2026-05-04 18:03 | 47.34053 | -62.76719 | 36542 ft | 494 kts | 83° |
| 2026-05-04 18:04 | 47.34952 | -62.66680 | 36533 ft | 493 kts | 83° |
| 2026-05-04 18:05 | 47.36134 | -62.53317 | 36524 ft | 494 kts | 84° |
| 2026-05-04 18:05 | 47.37011 | -62.43268 | 36523 ft | 494 kts | 84° |
| 2026-05-04 18:06 | 47.38313 | -62.28175 | 36528 ft | 495 kts | 84° |
| 2026-05-04 18:06 | 47.39174 | -62.18087 | 36527 ft | 496 kts | 84° |
| 2026-05-04 18:07 | 47.40029 | -62.07989 | 36520 ft | 496 kts | 84° |
| 2026-05-04 18:07 | 47.40874 | -61.97880 | 36518 ft | 496 kts | 84° |
| 2026-05-04 18:08 | 47.41713 | -61.87752 | 36473 ft | 497 kts | 84° |
| 2026-05-04 18:08 | 47.42513 | -61.77631 | 36452 ft | 496 kts | 86° |
| 2026-05-04 18:09 | 47.43818 | -61.57349 | 36457 ft | 496 kts | 86° |
| 2026-05-04 18:10 | 47.44474 | -61.47205 | 36460 ft | 496 kts | 86° |
| 2026-05-04 18:10 | 47.45116 | -61.37126 | 36462 ft | 496 kts | 86° |
| 2026-05-04 18:11 | 47.45754 | -61.26971 | 36469 ft | 497 kts | 86° |
| 2026-05-04 18:11 | 47.46384 | -61.16786 | 36465 ft | 497 kts | 86° |
| 2026-05-04 18:12 | 47.47005 | -61.06621 | 36477 ft | 497 kts | 86° |
| 2026-05-04 18:12 | 47.47616 | -60.96446 | 36478 ft | 497 kts | 86° |
| 2026-05-04 18:13 | 47.48219 | -60.86262 | 36480 ft | 497 kts | 86° |
| 2026-05-04 18:14 | 47.49110 | -60.70949 | 36468 ft | 499 kts | 87° |
| 2026-05-04 18:14 | 47.49693 | -60.60713 | 36485 ft | 499 kts | 86° |
| 2026-05-04 18:15 | 47.50831 | -60.40245 | 36477 ft | 499 kts | 87° |
| 2026-05-04 18:16 | 47.51387 | -60.30006 | 36455 ft | 499 kts | 87° |
| 2026-05-04 18:16 | 47.51932 | -60.19773 | 36455 ft | 498 kts | 88° |
| 2026-05-04 18:17 | 47.52733 | -60.04469 | 36443 ft | 497 kts | 88° |
| 2026-05-04 18:18 | 47.53511 | -59.89171 | 36456 ft | 497 kts | 88° |
| 2026-05-04 18:18 | 47.54018 | -59.78982 | 36436 ft | 497 kts | 88° |
| 2026-05-04 18:19 | 47.54768 | -59.63593 | 36425 ft | 501 kts | 88° |
| 2026-05-04 18:19 | 47.55257 | -59.53294 | 36432 ft | 501 kts | 88° |
| 2026-05-04 18:20 | 47.55734 | -59.43065 | 36433 ft | 500 kts | 88° |
| 2026-05-04 18:20 | 47.56204 | -59.32771 | 36433 ft | 501 kts | 88° |
| 2026-05-04 18:21 | 47.56665 | -59.22484 | 36430 ft | 499 kts | 89° |
| 2026-05-04 18:21 | 47.57116 | -59.12218 | 36437 ft | 499 kts | 88° |
| 2026-05-04 18:22 | 47.57558 | -59.01963 | 36432 ft | 499 kts | 88° |
| 2026-05-04 18:22 | 47.57990 | -58.91693 | 36434 ft | 499 kts | 89° |
| 2026-05-04 18:23 | 47.58413 | -58.81429 | 36433 ft | 499 kts | 88° |
| 2026-05-04 18:23 | 47.58826 | -58.71174 | 36419 ft | 499 kts | 88° |
| 2026-05-04 18:24 | 47.59231 | -58.60906 | 36422 ft | 499 kts | 89° |
| 2026-05-04 18:24 | 47.59626 | -58.50678 | 36406 ft | 496 kts | 89° |
| 2026-05-04 18:25 | 47.60009 | -58.40491 | 36393 ft | 496 kts | 90° |
| 2026-05-04 18:25 | 47.60384 | -58.30291 | 36395 ft | 497 kts | 90° |
| 2026-05-04 18:26 | 47.60750 | -58.20076 | 36384 ft | 497 kts | 90° |
| 2026-05-04 18:26 | 47.61108 | -58.09854 | 36376 ft | 497 kts | 90° |
| 2026-05-04 18:27 | 47.61457 | -57.99634 | 36382 ft | 497 kts | 90° |
| 2026-05-04 18:27 | 47.61796 | -57.89402 | 36376 ft | 497 kts | 90° |
| 2026-05-04 18:28 | 47.62125 | -57.79205 | 36374 ft | 494 kts | 90° |
| 2026-05-04 18:28 | 47.62445 | -57.68996 | 36377 ft | 497 kts | 91° |
| 2026-05-04 18:29 | 47.62758 | -57.58729 | 36378 ft | 499 kts | 90° |
| 2026-05-04 18:29 | 47.63062 | -57.48456 | 36381 ft | 498 kts | 91° |
| 2026-05-04 18:30 | 47.63501 | -57.33061 | 36359 ft | 499 kts | 91° |
| 2026-05-04 18:31 | 47.63781 | -57.22858 | 36347 ft | 499 kts | 91° |
| 2026-05-04 18:31 | 47.64053 | -57.12572 | 36377 ft | 498 kts | 91° |
| 2026-05-04 18:32 | 47.64315 | -57.02317 | 36348 ft | 497 kts | 91° |
| 2026-05-04 18:32 | 47.64568 | -56.92049 | 36349 ft | 498 kts | 91° |
| 2026-05-04 18:33 | 47.64813 | -56.81767 | 36337 ft | 498 kts | 92° |
| 2026-05-04 18:33 | 47.65048 | -56.71495 | 36297 ft | 499 kts | 91° |
| 2026-05-04 18:34 | 47.65274 | -56.61209 | 36292 ft | 500 kts | 91° |
| 2026-05-04 18:34 | 47.65492 | -56.50904 | 36287 ft | 499 kts | 91° |
| 2026-05-04 18:35 | 47.65700 | -56.40645 | 36244 ft | 496 kts | 92° |
| 2026-05-04 18:35 | 47.65897 | -56.30427 | 36243 ft | 496 kts | 92° |
| 2026-05-04 18:36 | 47.66086 | -56.20215 | 36177 ft | 495 kts | 92° |
| 2026-05-04 18:36 | 47.66265 | -56.09971 | 36215 ft | 498 kts | 93° |
| 2026-05-04 18:37 | 47.66436 | -55.99705 | 36222 ft | 497 kts | 93° |
| 2026-05-04 18:37 | 47.66598 | -55.89433 | 36218 ft | 498 kts | 92° |
| 2026-05-04 18:38 | 47.66750 | -55.79169 | 35682 ft | 496 kts | 92° |
| 2026-05-04 18:38 | 47.66823 | -55.74030 | 34788 ft | 502 kts | 92° |
| 2026-05-04 18:38 | 47.66893 | -55.68820 | 33859 ft | 508 kts | 93° |
| 2026-05-04 18:38 | 47.66964 | -55.63591 | 33294 ft | 506 kts | 92° |
| 2026-05-04 18:39 | 47.67031 | -55.58380 | 32643 ft | 504 kts | 92° |
| 2026-05-04 18:39 | 47.67095 | -55.53205 | 32008 ft | 500 kts | 93° |
| 2026-05-04 18:39 | 47.67156 | -55.48068 | 31500 ft | 495 kts | 92° |
| 2026-05-04 18:39 | 47.67214 | -55.42977 | 30988 ft | 491 kts | 93° |
| 2026-05-04 18:40 | 47.67270 | -55.37934 | 30495 ft | 488 kts | 93° |
| 2026-05-04 18:40 | 47.67323 | -55.32912 | 29940 ft | 486 kts | 93° |
| 2026-05-04 18:40 | 47.67374 | -55.27906 | 29382 ft | 484 kts | 93° |
| 2026-05-04 18:40 | 47.67423 | -55.22933 | 28739 ft | 482 kts | 93° |
| 2026-05-04 18:41 | 47.67469 | -55.17983 | 28210 ft | 477 kts | 94° |
| 2026-05-04 18:41 | 47.67513 | -55.13079 | 27695 ft | 473 kts | 93° |
| 2026-05-04 18:41 | 47.67554 | -55.08225 | 27215 ft | 469 kts | 93° |
| 2026-05-04 18:41 | 47.67592 | -55.03415 | 26695 ft | 465 kts | 94° |
| 2026-05-04 18:42 | 47.67629 | -54.98631 | 26195 ft | 462 kts | 94° |
| 2026-05-04 18:42 | 47.67663 | -54.93948 | 25733 ft | 458 kts | 94° |
| 2026-05-04 18:42 | 47.67696 | -54.89175 | 25238 ft | 455 kts | 93° |
| 2026-05-04 18:42 | 47.67726 | -54.84558 | 24765 ft | 452 kts | 93° |
| 2026-05-04 18:43 | 47.67756 | -54.79901 | 24283 ft | 450 kts | 93° |
| 2026-05-04 18:43 | 47.67783 | -54.75276 | 23822 ft | 447 kts | 93° |
| 2026-05-04 18:43 | 47.67809 | -54.70678 | 23354 ft | 445 kts | 93° |
| 2026-05-04 18:43 | 47.67832 | -54.66093 | 22825 ft | 443 kts | 94° |
| 2026-05-04 18:44 | 47.67854 | -54.61525 | 22022 ft | 442 kts | 94° |
| 2026-05-04 18:44 | 47.67861 | -54.59986 | 21712 ft | 441 kts | 94° |
| 2026-05-04 18:44 | 47.67892 | -54.52549 | 20838 ft | 422 kts | 94° |
| 2026-05-04 18:44 | 47.67908 | -54.48264 | 20517 ft | 411 kts | 94° |
| 2026-05-04 18:45 | 47.67921 | -54.44040 | 20123 ft | 408 kts | 94° |
| 2026-05-04 18:45 | 47.67934 | -54.39843 | 19745 ft | 406 kts | 94° |
| 2026-05-04 18:45 | 47.67943 | -54.35703 | 19570 ft | 396 kts | 94° |
| 2026-05-04 18:45 | 47.67954 | -54.31638 | 19358 ft | 394 kts | 95° |
| 2026-05-04 18:46 | 47.67960 | -54.27546 | 19010 ft | 390 kts | 94° |
| 2026-05-04 18:46 | 47.67968 | -54.23507 | 18341 ft | 398 kts | 94° |
| 2026-05-04 18:46 | 47.67973 | -54.19387 | 17878 ft | 399 kts | 94° |
| 2026-05-04 18:46 | 47.67988 | -54.15282 | 17419 ft | 399 kts | 93° |
| 2026-05-04 18:47 | 47.68060 | -54.11178 | 17130 ft | 391 kts | 93° |
| 2026-05-04 18:47 | 47.68135 | -54.07214 | 17079 ft | 379 kts | 93° |
| 2026-05-04 18:47 | 47.68208 | -54.03338 | 16794 ft | 374 kts | 93° |
| 2026-05-04 18:47 | 47.68279 | -53.99494 | 16438 ft | 372 kts | 93° |
| 2026-05-04 18:48 | 47.68326 | -53.96958 | 16194 ft | 370 kts | 93° |
| 2026-05-04 18:48 | 47.68395 | -53.93149 | 15834 ft | 369 kts | 94° |
| 2026-05-04 18:48 | 47.68462 | -53.89355 | 15457 ft | 368 kts | 94° |
| 2026-05-04 18:48 | 47.68528 | -53.85568 | 15089 ft | 366 kts | 94° |
| 2026-05-04 18:49 | 47.68593 | -53.81800 | 14726 ft | 365 kts | 94° |
| 2026-05-04 18:49 | 47.68656 | -53.78049 | 14363 ft | 363 kts | 94° |
| 2026-05-04 18:49 | 47.68718 | -53.74300 | 13994 ft | 363 kts | 94° |
| 2026-05-04 18:49 | 47.68778 | -53.70563 | 13645 ft | 362 kts | 94° |
| 2026-05-04 18:50 | 47.68837 | -53.66825 | 13287 ft | 362 kts | 95° |
| 2026-05-04 18:50 | 47.68895 | -53.63101 | 12873 ft | 361 kts | 95° |
| 2026-05-04 18:50 | 47.68951 | -53.59372 | 12471 ft | 360 kts | 95° |
| 2026-05-04 18:50 | 47.69006 | -53.55665 | 12090 ft | 359 kts | 95° |
| 2026-05-04 18:51 | 47.69060 | -53.51972 | 11734 ft | 357 kts | 95° |
| 2026-05-04 18:51 | 47.69112 | -53.48296 | 11380 ft | 356 kts | 96° |
| 2026-05-04 18:51 | 47.69163 | -53.44634 | 11014 ft | 355 kts | 96° |
| 2026-05-04 18:51 | 47.69213 | -53.40974 | 10640 ft | 354 kts | 96° |
| 2026-05-04 18:52 | 47.69261 | -53.37320 | 10314 ft | 352 kts | 96° |
| 2026-05-04 18:52 | 47.69308 | -53.33726 | 10146 ft | 344 kts | 96° |
| 2026-05-04 18:52 | 47.69353 | -53.30225 | 10026 ft | 335 kts | 97° |
| 2026-05-04 18:52 | 47.69394 | -53.26792 | 9777 ft | 332 kts | 97° |
| 2026-05-04 18:53 | 47.69435 | -53.23370 | 9420 ft | 332 kts | 97° |
| 2026-05-04 18:53 | 47.69476 | -53.19926 | 9003 ft | 334 kts | 97° |
| 2026-05-04 18:53 | 47.69516 | -53.16477 | 8615 ft | 334 kts | 97° |
| 2026-05-04 18:53 | 47.69554 | -53.13037 | 8273 ft | 333 kts | 97° |
| 2026-05-04 18:54 | 47.69592 | -53.09612 | 7923 ft | 331 kts | 97° |
| 2026-05-04 18:54 | 47.69629 | -53.06199 | 7550 ft | 330 kts | 97° |
| 2026-05-04 18:54 | 47.69664 | -53.02792 | 7223 ft | 329 kts | 97° |
| 2026-05-04 18:54 | 47.69752 | -52.99402 | 6882 ft | 331 kts | 93° |
| 2026-05-04 18:55 | 47.69766 | -52.96034 | 6585 ft | 319 kts | 105° |
| 2026-05-04 18:55 | 47.69983 | -52.89538 | 6156 ft | 317 kts | 91° |
| 2026-05-04 18:55 | 47.70209 | -52.86292 | 5668 ft | 322 kts | 92° |
| 2026-05-04 18:56 | 47.70404 | -52.82974 | 5316 ft | 322 kts | 93° |
| 2026-05-04 18:56 | 47.70580 | -52.79690 | 5114 ft | 316 kts | 93° |
| 2026-05-04 18:56 | 47.70740 | -52.76485 | 5042 ft | 305 kts | 94° |
| 2026-05-04 18:56 | 47.70893 | -52.73415 | 5028 ft | 292 kts | 94° |
| 2026-05-04 18:57 | 47.71035 | -52.70482 | 5021 ft | 277 kts | 95° |
| 2026-05-04 18:57 | 47.71168 | -52.67666 | 4989 ft | 271 kts | 95° |
| 2026-05-04 18:57 | 47.71298 | -52.64880 | 4752 ft | 268 kts | 95° |
| 2026-05-04 18:57 | 47.71425 | -52.62144 | 4417 ft | 265 kts | 95° |
| 2026-05-04 18:58 | 47.71551 | -52.59426 | 4060 ft | 262 kts | 96° |
| 2026-05-04 18:58 | 47.71675 | -52.56767 | 3806 ft | 252 kts | 96° |
| 2026-05-04 18:58 | 47.71759 | -52.54236 | 3608 ft | 238 kts | 107° |
| 2026-05-04 18:58 | 47.71260 | -52.52140 | 3372 ft | 200 kts | 143° |
| 2026-05-04 18:59 | 47.70268 | -52.50972 | 3270 ft | 171 kts | 172° |
| 2026-05-04 18:59 | 47.69165 | -52.50487 | 3247 ft | 163 kts | 181° |
| 2026-05-04 18:59 | 47.68056 | -52.50147 | 3198 ft | 162 kts | 183° |
| 2026-05-04 18:59 | 47.66950 | -52.49866 | 3132 ft | 161 kts | 185° |
| 2026-05-04 19:00 | 47.65849 | -52.49634 | 3069 ft | 159 kts | 186° |
| 2026-05-04 19:00 | 47.64834 | -52.49832 | 3011 ft | 141 kts | 216° |
| 2026-05-04 19:00 | 47.64245 | -52.50943 | 2998 ft | 141 kts | 240° |
| 2026-05-04 19:00 | 47.63894 | -52.52327 | 3018 ft | 145 kts | 246° |
| 2026-05-04 19:01 | 47.63643 | -52.53792 | 3009 ft | 148 kts | 250° |
| 2026-05-04 19:01 | 47.63476 | -52.55308 | 2846 ft | 149 kts | 253° |
| 2026-05-04 19:01 | 47.63372 | -52.56756 | 2682 ft | 130 kts | 254° |
| 2026-05-04 19:01 | 47.63298 | -52.58022 | 2554 ft | 121 kts | 253° |
| 2026-05-04 19:02 | 47.63231 | -52.59243 | 2389 ft | 120 kts | 253° |
| 2026-05-04 19:02 | 47.63168 | -52.60478 | 2225 ft | 120 kts | 253° |
| 2026-05-04 19:02 | 47.63106 | -52.61717 | 2059 ft | 121 kts | 253° |
| 2026-05-04 19:02 | 47.63045 | -52.62962 | 1894 ft | 122 kts | 253° |
| 2026-05-04 19:03 | 47.62985 | -52.64222 | 1730 ft | 123 kts | 254° |
| 2026-05-04 19:03 | 47.62924 | -52.65492 | 1569 ft | 124 kts | 254° |
| 2026-05-04 19:03 | 47.62862 | -52.66765 | 1444 ft | 124 kts | 251° |
| 2026-05-04 19:03 | 47.62783 | -52.68033 | 1349 ft | 124 kts | 252° |
| 2026-05-04 19:04 | 47.62706 | -52.69337 | 1127 ft | 129 kts | 256° |
| 2026-05-04 19:04 | 47.62674 | -52.70679 | 951 ft | 131 kts | 259° |
| 2026-05-04 19:04 | 47.62616 | -52.72062 | 720 ft | 136 kts | 258° |
| 2026-05-04 19:04 | 47.62552 | -52.73451 | 626 ft | 146 kts | 263° |
| 2026-05-04 19:05 | 47.62556 | -52.74958 | 1410 ft | 141 kts | 261° |
| 2026-05-04 19:05 | 47.62579 | -52.76341 | 2427 ft | 128 kts | 250° |
| 2026-05-04 19:05 | 47.62434 | -52.77674 | 2957 ft | 133 kts | 244° |
| 2026-05-04 19:05 | 47.62169 | -52.78985 | 2970 ft | 135 kts | 244° |
| 2026-05-04 19:06 | 47.61926 | -52.80393 | 2885 ft | 151 kts | 257° |
| 2026-05-04 19:06 | 47.62241 | -52.82017 | 2863 ft | 189 kts | 289° |
| 2026-05-04 19:06 | 47.63383 | -52.83339 | 2759 ft | 233 kts | 324° |
| 2026-05-04 19:06 | 47.65088 | -52.83827 | 2861 ft | 264 kts | 342° |
| 2026-05-04 19:07 | 47.66996 | -52.84026 | 2893 ft | 288 kts | 354° |
| 2026-05-04 19:07 | 47.69004 | -52.83256 | 2952 ft | 308 kts | 19° |
| 2026-05-04 19:07 | 47.70945 | -52.81822 | 2981 ft | 313 kts | 23° |
| 2026-05-04 19:07 | 47.72882 | -52.80320 | 2995 ft | 315 kts | 23° |
| 2026-05-04 19:08 | 47.74825 | -52.78811 | 2990 ft | 314 kts | 23° |
| 2026-05-04 19:08 | 47.76721 | -52.77220 | 2991 ft | 312 kts | 35° |
| 2026-05-04 19:08 | 47.78030 | -52.74792 | 2980 ft | 293 kts | 73° |
| 2026-05-04 19:08 | 47.78288 | -52.72024 | 2992 ft | 252 kts | 114° |
| 2026-05-04 19:09 | 47.77626 | -52.69871 | 3016 ft | 220 kts | 141° |
| 2026-05-04 19:09 | 47.76875 | -52.67785 | 2998 ft | 238 kts | 124° |
| 2026-05-04 19:09 | 47.76308 | -52.65465 | 3012 ft | 239 kts | 125° |
| 2026-05-04 19:09 | 47.75711 | -52.63164 | 3018 ft | 238 kts | 126° |
| 2026-05-04 19:10 | 47.75091 | -52.60883 | 3015 ft | 238 kts | 127° |
| 2026-05-04 19:10 | 47.74459 | -52.58619 | 3006 ft | 237 kts | 128° |
| 2026-05-04 19:10 | 47.73822 | -52.56366 | 3022 ft | 237 kts | 128° |
| 2026-05-04 19:10 | 47.73179 | -52.54117 | 3020 ft | 236 kts | 128° |
| 2026-05-04 19:11 | 47.72471 | -52.51959 | 2998 ft | 221 kts | 144° |
| 2026-05-04 19:11 | 47.71380 | -52.50752 | 2970 ft | 185 kts | 175° |
| 2026-05-04 19:11 | 47.70136 | -52.50346 | 3076 ft | 184 kts | 182° |
| 2026-05-04 19:11 | 47.68877 | -52.50038 | 3032 ft | 183 kts | 184° |
| 2026-05-04 19:12 | 47.67628 | -52.49787 | 3022 ft | 178 kts | 185° |
| 2026-05-04 19:12 | 47.65439 | -52.49448 | 3031 ft | 144 kts | 195° |
| 2026-05-04 19:12 | 47.64584 | -52.49952 | 3036 ft | 130 kts | 222° |
| 2026-05-04 19:13 | 47.64043 | -52.51012 | 3036 ft | 131 kts | 241° |
| 2026-05-04 19:13 | 47.63765 | -52.52323 | 3041 ft | 135 kts | 249° |
| 2026-05-04 19:13 | 47.63591 | -52.53705 | 3030 ft | 137 kts | 252° |
| 2026-05-04 19:13 | 47.63472 | -52.55085 | 2890 ft | 126 kts | 253° |
| 2026-05-04 19:14 | 47.63391 | -52.56322 | 2794 ft | 119 kts | 253° |
| 2026-05-04 19:14 | 47.63320 | -52.57534 | 2628 ft | 118 kts | 253° |
| 2026-05-04 19:14 | 47.63255 | -52.58744 | 2465 ft | 118 kts | 253° |
| 2026-05-04 19:14 | 47.63193 | -52.59962 | 2319 ft | 118 kts | 254° |
| 2026-05-04 19:15 | 47.63134 | -52.61178 | 2180 ft | 118 kts | 254° |
| 2026-05-04 19:15 | 47.63076 | -52.62404 | 2020 ft | 120 kts | 253° |
| 2026-05-04 19:15 | 47.63007 | -52.63639 | 1852 ft | 121 kts | 253° |
| 2026-05-04 19:15 | 47.62941 | -52.64898 | 1675 ft | 123 kts | 253° |
| 2026-05-04 19:16 | 47.62885 | -52.66170 | 1558 ft | 124 kts | 254° |
| 2026-05-04 19:16 | 47.62849 | -52.67449 | 1375 ft | 125 kts | 255° |
| 2026-05-04 19:16 | 47.62785 | -52.68726 | 1224 ft | 126 kts | 253° |
| 2026-05-04 19:16 | 47.62711 | -52.70032 | 1009 ft | 127 kts | 256° |
| 2026-05-04 19:17 | 47.62656 | -52.71324 | 842 ft | 123 kts | 256° |
| 2026-05-04 19:17 | 47.62590 | -52.72555 | 659 ft | 118 kts | 259° |
| 2026-05-04 19:17 | 47.62534 | -52.73768 | 467 ft | 117 kts | 259° |
| 2026-05-04 19:17 | 47.62476 | -52.74827 | 450 ft | 75 kts | 266° |
| 2026-05-04 19:18 | 47.62452 | -52.75307 | 450 ft | 25 kts | 266° |
| 2026-05-04 19:18 | 47.62444 | -52.75495 | 454 ft | 17 kts | 268° |
| 2026-05-04 19:18 | 47.62435 | -52.75688 | 464 ft | 21 kts | 265° |
| 2026-05-04 19:18 | 47.62421 | -52.75914 | 469 ft | 23 kts | 263° |
| 2026-05-04 19:19 | 47.62405 | -52.76153 | 472 ft | 24 kts | 266° |
| 2026-05-04 19:19 | 47.62398 | -52.76430 | 476 ft | 31 kts | 266° |
| 2026-05-04 19:19 | 47.62385 | -52.76728 | 473 ft | 30 kts | 266° |
| 2026-05-04 19:19 | 47.62358 | -52.76976 | 467 ft | 15 kts | 248° |
| 2026-05-04 19:20 | 47.62325 | -52.77061 | 467 ft | 7 kts | 256° |
| 2026-05-04 19:20 | 47.62366 | -52.77082 | 466 ft | 12 kts | 46° |
| 2026-05-04 19:20 | 47.62373 | -52.76936 | 466 ft | 16 kts | 86° |
| 2026-05-04 19:20 | 47.62384 | -52.76735 | 472 ft | 22 kts | 86° |
| 2026-05-04 19:21 | 47.62395 | -52.76512 | 474 ft | 22 kts | 86° |
| 2026-05-04 19:21 | 47.62405 | -52.76278 | 479 ft | 23 kts | 86° |
| 2026-05-04 19:21 | 47.62422 | -52.76032 | 469 ft | 26 kts | 84° |
| 2026-05-04 19:21 | 47.62436 | -52.75737 | 464 ft | 31 kts | 86° |
| 2026-05-04 19:22 | 47.62450 | -52.75396 | 451 ft | 36 kts | 86° |
| 2026-05-04 19:22 | 47.62461 | -52.75114 | 448 ft | 20 kts | 92° |
| 2026-05-04 19:22 | 47.62394 | -52.74937 | 449 ft | 20 kts | 137° |
| 2026-05-04 19:22 | 47.62293 | -52.74808 | 454 ft | 18 kts | 140° |
| 2026-05-04 19:23 | 47.62194 | -52.74683 | 455 ft | 19 kts | 140° |
| 2026-05-04 19:23 | 47.62097 | -52.74651 | 456 ft | 14 kts | 226° |
| 2026-05-04 19:23 | 47.62058 | -52.74718 | 458 ft | 4 kts | 230° |
| 2026-05-04 19:23 | 47.62050 | -52.74732 | 462 ft | 7 kts | 230° |
| 2026-05-04 19:24 | 47.61983 | -52.74728 | 464 ft | 15 kts | 139° |
| 2026-05-04 19:24 | 47.61895 | -52.74619 | 464 ft | 17 kts | 139° |
| 2026-05-04 19:24 | 47.61794 | -52.74490 | 456 ft | 22 kts | 139° |
| 2026-05-04 19:24 | 47.61660 | -52.74322 | 448 ft | 24 kts | 138° |
| 2026-05-04 19:25 | 47.61570 | -52.74271 | 448 ft | 12 kts | 207° |
| 2026-05-04 19:25 | 47.61517 | -52.74342 | 451 ft | 8 kts | 206° |
| 2026-05-04 19:25 | 47.61471 | -52.74323 | 451 ft | 9 kts | 133° |
| 2026-05-04 19:25 | 47.61442 | -52.74237 | 451 ft | 6 kts | 113° |
| 2026-05-04 19:26 | 47.61426 | -52.74181 | 451 ft | 6 kts | 115° |
| 2026-05-04 19:26 | 47.61416 | -52.74158 | 451 ft | 1 kts | 152° |
| 2026-05-04 19:26 | 47.61415 | -52.74185 | 451 ft | 6 kts | 297° |
| 2026-05-04 19:26 | 47.61454 | -52.74284 | 451 ft | 16 kts | 294° |
| 2026-05-04 19:27 | 47.61484 | -52.74442 | 451 ft | 14 kts | 251° |
| 2026-05-04 19:27 | 47.61437 | -52.74472 | 451 ft | 6 kts | 172° |
| 2026-05-04 19:27 | 47.61413 | -52.74466 | 451 ft | 1 kts | 172° |
| 2026-05-04 19:27 | 47.61410 | -52.74465 | 451 ft | 0 kts | 172° |
| 2026-05-04 19:28 | 47.61409 | -52.74465 | 451 ft | 0 kts | 172° |